createdAt,value
2023-03-08T00:04:23.379Z,1.22
2023-03-08T00:09:24.316Z,1.21
2023-03-08T00:14:25.572Z,1.25
2023-03-08T00:19:26.580Z,1.22
2023-03-08T00:24:27.352Z,1.25
2023-03-08T00:29:28.367Z,1.23
2023-03-08T00:34:30.524Z,1.29
2023-03-08T00:39:31.319Z,1.45
2023-03-08T00:44:32.102Z,1.32
2023-03-08T00:49:32.974Z,1.38
2023-03-08T00:54:34.068Z,1.42
2023-03-08T00:59:35.082Z,1.47
2023-03-08T01:04:36.079Z,1.56
2023-03-08T01:09:36.856Z,1.51
2023-03-08T01:14:38.254Z,1.53
2023-03-08T01:19:40.829Z,1.77
2023-03-08T01:24:45.538Z,1.74
2023-03-08T01:29:46.430Z,1.77
2023-03-08T01:34:47.458Z,1.70
2023-03-08T01:39:48.232Z,1.64
2023-03-08T01:44:55.896Z,1.91
2023-03-08T01:50:09.938Z,1.99
2023-03-08T01:55:14.271Z,1.91
2023-03-08T02:00:18.908Z,1.78
2023-03-08T02:05:22.642Z,1.74
2023-03-08T02:10:25.365Z,1.83
2023-03-08T02:15:27.664Z,1.81
2023-03-08T02:20:33.362Z,1.70
2023-03-08T02:25:41.445Z,1.73
2023-03-08T02:30:42.289Z,1.72
2023-03-08T02:35:43.513Z,1.67
2023-03-08T02:40:46.085Z,1.65
2023-03-08T02:45:47.568Z,1.54
2023-03-08T02:50:48.489Z,1.64
2023-03-08T02:55:49.394Z,1.77
2023-03-08T03:00:50.326Z,1.86
2023-03-08T03:05:52.038Z,1.86
2023-03-08T03:10:57.935Z,1.81
2023-03-08T03:15:58.756Z,1.76
2023-03-08T03:21:08.527Z,1.65
2023-03-08T03:26:12.437Z,1.56
2023-03-08T03:31:16.160Z,1.60
2023-03-08T03:36:19.986Z,1.52
2023-03-08T03:41:22.593Z,1.37
2023-03-08T03:46:26.706Z,1.50
2023-03-08T03:51:28.553Z,1.55
2023-03-08T03:56:39.792Z,1.49
2023-03-08T04:01:41.233Z,1.37
2023-03-08T04:06:53.192Z,1.32
2023-03-08T04:11:56.237Z,1.14
2023-03-08T04:16:57.527Z,1.12
2023-03-08T04:22:04.107Z,0.98
2023-03-08T04:27:10.396Z,0.96
2023-03-08T04:32:11.269Z,0.96
2023-03-08T04:37:19.062Z,1.09
2023-03-08T04:42:22.031Z,0.98
2023-03-08T04:47:22.918Z,1.06
2023-03-08T04:52:24.076Z,1.08
2023-03-08T04:57:25.986Z,1.12
2023-03-08T05:02:28.799Z,0.96
2023-03-08T05:07:30.354Z,0.84
2023-03-08T05:12:31.922Z,0.77
2023-03-08T05:17:33.973Z,0.82
2023-03-08T05:22:48.098Z,0.69
2023-03-08T05:27:57.516Z,0.69
2023-03-08T05:32:59.277Z,0.70
2023-03-08T05:38:00.136Z,0.69
2023-03-08T05:43:01.845Z,0.63
2023-03-08T05:48:03.726Z,0.69
2023-03-08T05:53:06.516Z,0.57
2023-03-08T05:58:07.429Z,0.42
2023-03-08T06:03:08.602Z,0.35
2023-03-08T06:08:10.353Z,0.25
2023-03-08T06:13:12.480Z,0.48
2023-03-08T06:18:13.623Z,0.52
2023-03-08T06:23:15.319Z,0.56
2023-03-08T06:28:16.425Z,0.58
2023-03-08T06:33:19.315Z,0.26
2023-03-08T06:38:20.263Z,0.30
2023-03-08T06:43:21.420Z,0.29
2023-03-08T06:48:23.214Z,0.31
2023-03-08T06:53:24.651Z,0.34
2023-03-08T06:58:34.838Z,0.43
2023-03-08T07:03:36.230Z,0.22
2023-03-08T07:08:38.623Z,0.30
2023-03-08T07:13:39.683Z,0.10
2023-03-08T07:18:41.627Z,-0.02
2023-03-08T07:23:42.764Z,-0.13
2023-03-08T07:28:43.889Z,-0.45
2023-03-08T07:33:45.021Z,-0.44
2023-03-08T07:38:46.489Z,-0.56
2023-03-08T07:43:47.318Z,-0.63
2023-03-08T07:48:55.138Z,-0.65
2023-03-08T07:53:56.298Z,-0.63
2023-03-08T07:58:57.143Z,-0.53
2023-03-08T08:03:59.137Z,-0.57
2023-03-08T08:08:59.981Z,-0.39
2023-03-08T08:14:01.431Z,-0.46
2023-03-08T08:19:02.328Z,-0.49
2023-03-08T08:24:03.295Z,-0.58
2023-03-08T08:29:04.845Z,-0.59
2023-03-08T08:34:05.697Z,-0.64
2023-03-08T08:39:06.724Z,-0.66
2023-03-08T08:44:07.756Z,-0.62
2023-03-08T08:49:10.123Z,-0.52
2023-03-08T08:54:11.232Z,-0.53
2023-03-08T08:59:13.039Z,-0.74
2023-03-08T09:04:16.029Z,-0.73
2023-03-08T09:09:17.129Z,-0.67
2023-03-08T09:14:17.952Z,-0.59
2023-03-08T09:19:18.946Z,-0.55
2023-03-08T09:24:20.122Z,-0.50
2023-03-08T09:29:20.878Z,-0.50
2023-03-08T09:34:21.785Z,-0.42
2023-03-08T09:39:22.592Z,-0.46
2023-03-08T09:45:27.477Z,-0.43
2023-03-08T09:51:13.165Z,-0.43
2023-03-08T09:56:30.998Z,-0.41
2023-03-08T10:02:26.830Z,-0.25
2023-03-08T10:07:46.949Z,-0.29
2023-03-08T10:14:18.181Z,-0.14
2023-03-08T10:19:32.502Z,-0.34
2023-03-08T10:24:45.049Z,-0.25
2023-03-08T10:29:57.672Z,-0.34
2023-03-08T10:35:04.181Z,-0.22
2023-03-08T10:40:21.160Z,-0.24
2023-03-08T10:45:23.439Z,-0.32
2023-03-08T10:50:34.686Z,-0.25
2023-03-08T10:55:44.609Z,-0.20
2023-03-08T11:00:53.730Z,-0.19
2023-03-08T11:06:02.951Z,-0.01
2023-03-08T11:11:12.848Z,0.30
2023-03-08T11:20:46.449Z,0.24
2023-03-08T11:26:32.283Z,0.31
2023-03-08T11:32:28.576Z,0.62
2023-03-08T11:37:40.315Z,0.73
2023-03-08T11:43:04.348Z,0.78
2023-03-08T11:48:30.169Z,0.79
2023-03-08T11:59:01.686Z,0.69
2023-03-08T12:05:35.111Z,0.73
2023-03-08T12:12:20.210Z,0.84
2023-03-08T12:17:26.723Z,0.97
2023-03-08T12:22:53.914Z,1.02
2023-03-08T12:28:19.917Z,1.12
2023-03-08T12:33:21.991Z,1.40
2023-03-08T12:38:40.201Z,1.36
2023-03-08T12:43:41.047Z,1.38
2023-03-08T12:48:50.722Z,1.48
2023-03-08T12:53:58.989Z,1.64
2023-03-08T13:00:05.904Z,1.77
2023-03-08T13:05:19.484Z,1.93
2023-03-08T13:10:25.605Z,2.15
2023-03-08T13:15:26.594Z,2.59
2023-03-08T13:20:48.434Z,2.67
2023-03-08T13:27:38.905Z,2.91
2023-03-08T13:32:40.127Z,3.11
2023-03-08T13:37:41.129Z,3.40
2023-03-08T13:43:04.876Z,3.44
2023-03-08T13:48:08.391Z,3.49
2023-03-08T13:56:41.632Z,3.63
2023-03-08T14:01:48.025Z,3.99
2023-03-08T14:06:55.635Z,4.24
2023-03-08T14:12:04.872Z,4.33
2023-03-08T14:17:06.258Z,4.60
2023-03-08T14:22:21.226Z,4.73
2023-03-08T14:27:40.818Z,4.73
2023-03-08T14:32:56.240Z,4.97
2023-03-08T14:37:58.201Z,5.19
2023-03-08T14:43:13.157Z,5.44
2023-03-08T14:48:34.569Z,5.65
2023-03-08T14:53:38.663Z,5.74
2023-03-08T14:58:49.776Z,5.88
2023-03-08T15:03:50.696Z,6.02
2023-03-08T15:08:54.183Z,6.20
2023-03-08T15:13:54.977Z,6.29
2023-03-08T15:18:55.899Z,6.28
2023-03-08T15:23:57.683Z,6.31
2023-03-08T15:29:02.504Z,6.31
2023-03-08T15:34:03.259Z,6.47
2023-03-08T15:39:04.160Z,6.51
2023-03-08T15:44:05.870Z,6.65
2023-03-08T15:49:07.782Z,6.71
2023-03-08T15:54:10.047Z,6.77
2023-03-08T15:59:10.813Z,6.87
2023-03-08T16:04:11.659Z,6.87
2023-03-08T16:09:12.423Z,6.94
2023-03-08T16:14:17.057Z,6.85
2023-03-08T16:19:17.927Z,6.98
2023-03-08T16:24:18.770Z,7.04
2023-03-08T16:29:20.189Z,6.97
2023-03-08T16:34:21.465Z,6.94
2023-03-08T16:39:23.580Z,6.94
2023-03-08T16:44:27.416Z,6.92
2023-03-08T16:49:28.700Z,7.02
2023-03-08T16:54:30.463Z,7.03
2023-03-08T16:59:31.237Z,7.11
2023-03-08T17:04:32.033Z,7.05
2023-03-08T17:09:34.159Z,7.09
2023-03-08T17:14:35.998Z,7.05
2023-03-08T17:19:38.726Z,7.11
2023-03-08T17:24:40.651Z,7.07
2023-03-08T17:29:41.448Z,7.08
2023-03-08T17:34:42.222Z,7.05
2023-03-08T17:39:43.028Z,7.00
2023-03-08T17:44:44.024Z,6.96
2023-03-08T17:49:45.162Z,6.90
2023-03-08T17:54:47.896Z,6.82
2023-03-08T17:59:49.842Z,6.77
2023-03-08T18:04:51.109Z,6.74
2023-03-08T18:09:51.913Z,6.65
2023-03-08T18:14:52.942Z,6.65
2023-03-08T18:19:53.897Z,6.63
2023-03-08T18:24:54.763Z,6.49
2023-03-08T18:29:55.698Z,6.44
2023-03-08T18:34:56.752Z,6.40
2023-03-08T18:39:57.934Z,6.52
2023-03-08T18:44:58.698Z,6.46
2023-03-08T18:49:59.665Z,6.38
2023-03-08T18:55:01.163Z,6.39
2023-03-08T19:00:05.309Z,6.38
2023-03-08T19:05:06.700Z,6.49
2023-03-08T19:10:08.654Z,6.43
2023-03-08T19:15:10.553Z,6.43
2023-03-08T19:20:11.924Z,6.49
2023-03-08T19:25:15.105Z,6.48
2023-03-08T19:30:16.126Z,6.58
2023-03-08T19:35:17.094Z,6.35
2023-03-08T19:40:18.108Z,6.33
2023-03-08T19:45:18.892Z,6.18
2023-03-08T19:50:19.832Z,6.22
2023-03-08T19:55:20.673Z,6.20
2023-03-08T20:00:21.769Z,6.16
2023-03-08T20:05:22.711Z,6.22
2023-03-08T20:10:23.571Z,6.25
2023-03-08T20:15:24.469Z,6.19
2023-03-08T20:20:25.352Z,6.21
2023-03-08T20:25:26.261Z,6.22
2023-03-08T20:30:30.714Z,6.18
2023-03-08T20:35:31.512Z,6.12
2023-03-08T20:40:32.332Z,6.15
2023-03-08T20:45:33.138Z,6.09
2023-03-08T20:50:34.089Z,6.12
2023-03-08T20:55:37.951Z,6.16
2023-03-08T21:00:41.327Z,6.11
2023-03-08T21:05:42.498Z,6.12
2023-03-08T21:10:43.257Z,6.12
2023-03-08T21:15:44.243Z,6.35
2023-03-08T21:20:45.114Z,6.42
2023-03-08T21:25:46.417Z,6.34
2023-03-08T21:30:47.466Z,6.30
2023-03-08T21:35:48.378Z,6.38
2023-03-08T21:40:49.144Z,6.53
2023-03-08T21:45:50.020Z,6.43
2023-03-08T21:50:50.914Z,6.41
2023-03-08T21:55:51.709Z,6.50
2023-03-08T22:00:53.344Z,6.58
2023-03-08T22:05:54.154Z,6.49
2023-03-08T22:10:54.985Z,6.50
2023-03-08T22:15:55.873Z,6.31
2023-03-08T22:20:57.027Z,6.26
2023-03-08T22:25:57.914Z,6.27
2023-03-08T22:30:58.684Z,6.42
2023-03-08T22:35:59.539Z,6.49
2023-03-08T22:41:00.314Z,6.40
2023-03-08T22:46:07.347Z,6.36
2023-03-08T22:51:11.423Z,6.38
2023-03-08T22:56:29.338Z,6.40
2023-03-08T23:01:32.182Z,6.46
2023-03-08T23:06:33.668Z,6.41
2023-03-08T23:11:36.049Z,6.51
2023-03-08T23:16:41.195Z,6.50
2023-03-08T23:21:43.709Z,6.57
2023-03-08T23:26:45.429Z,6.55
2023-03-08T23:31:46.312Z,6.51
2023-03-08T23:36:47.118Z,6.53
2023-03-08T23:41:47.910Z,6.48
2023-03-08T23:46:48.686Z,6.52
2023-03-08T23:51:49.650Z,6.58
2023-03-08T23:56:50.444Z,6.61
